Azalia, Michigan
Current Conditions -  °F | °C
As of 5:36 AM on Friday 21 Nov 2014 (Local Time) from KTTF Reporting Station
Overcast Overcast  
Wind Chill: -13°   Ceiling: 6000
Heat Index: -8°   Visibility: 10mi
Dew Point: -12°   Wind: 6mph
Humidity: 73%   Direction: 290°WNW
Pressure: 30.34"   Gusts: NA
Location:  42.02°N, 83.67°W
Report Text: KTTF 211036Z AUTO 29005KT 10SM OVC060 M08/M12 A3034 RMK AO2
Loading
Personal Weather Stations






























Interactive Weather Map New forecast layout! Learn more

10-Day Weather Forecast

Advertisements
Track Severe Weather on mobile